sensor_id;sensor_type;location;lat;lon;timestamp;pressure;altitude;pressure_sealevel;temperature;humidity
7802;BME280;3945;48.952;9.506;2022-12-18T00:01:37;99064.69;;;-7.29;84.14
7802;BME280;3945;48.952;9.506;2022-12-18T00:04:04;99061.56;;;-7.34;83.94
7802;BME280;3945;48.952;9.506;2022-12-18T00:06:34;99071.38;;;-7.39;83.78
7802;BME280;3945;48.952;9.506;2022-12-18T00:09:02;99066.72;;;-7.46;82.00
7802;BME280;3945;48.952;9.506;2022-12-18T00:11:29;99068.13;;;-7.55;80.91
7802;BME280;3945;48.952;9.506;2022-12-18T00:13:56;99072.16;;;-7.64;80.55
7802;BME280;3945;48.952;9.506;2022-12-18T00:16:23;99068.41;;;-7.72;79.41
7802;BME280;3945;48.952;9.506;2022-12-18T00:18:51;99073.13;;;-7.79;78.75
7802;BME280;3945;48.952;9.506;2022-12-18T00:21:18;99080.63;;;-7.89;78.13
7802;BME280;3945;48.952;9.506;2022-12-18T00:23:46;99082.84;;;-7.97;78.33
7802;BME280;3945;48.952;9.506;2022-12-18T00:26:14;99083.16;;;-8.01;77.81
7802;BME280;3945;48.952;9.506;2022-12-18T00:28:41;99083.41;;;-8.06;78.38
7802;BME280;3945;48.952;9.506;2022-12-18T00:31:07;99080.31;;;-8.11;78.23
7802;BME280;3945;48.952;9.506;2022-12-18T00:33:34;99074.41;;;-8.13;77.40
7802;BME280;3945;48.952;9.506;2022-12-18T00:36:01;99072.22;;;-8.19;77.84
7802;BME280;3945;48.952;9.506;2022-12-18T00:38:27;99069.00;;;-8.22;76.94
7802;BME280;3945;48.952;9.506;2022-12-18T00:40:55;99072.06;;;-8.30;77.85
7802;BME280;3945;48.952;9.506;2022-12-18T00:43:22;99079.59;;;-8.27;77.37
7802;BME280;3945;48.952;9.506;2022-12-18T00:45:47;99077.94;;;-8.28;78.58
7802;BME280;3945;48.952;9.506;2022-12-18T00:48:13;99071.25;;;-8.31;78.96
7802;BME280;3945;48.952;9.506;2022-12-18T00:50:40;99062.78;;;-8.33;78.66
7802;BME280;3945;48.952;9.506;2022-12-18T00:53:06;99064.53;;;-8.33;80.19
7802;BME280;3945;48.952;9.506;2022-12-18T00:55:32;99060.34;;;-8.21;82.37
7802;BME280;3945;48.952;9.506;2022-12-18T00:58:00;99057.47;;;-8.17;82.58
7802;BME280;3945;48.952;9.506;2022-12-18T01:00:27;99056.47;;;-8.14;81.39
7802;BME280;3945;48.952;9.506;2022-12-18T01:02:53;99060.13;;;-8.18;81.45
7802;BME280;3945;48.952;9.506;2022-12-18T01:05:19;99064.56;;;-8.20;80.40
7802;BME280;3945;48.952;9.506;2022-12-18T01:07:46;99069.63;;;-8.19;80.61
7802;BME280;3945;48.952;9.506;2022-12-18T01:10:12;99076.44;;;-8.18;80.65
7802;BME280;3945;48.952;9.506;2022-12-18T01:12:39;99071.19;;;-8.16;81.43
7802;BME280;3945;48.952;9.506;2022-12-18T01:15:07;99078.72;;;-8.13;81.52
7802;BME280;3945;48.952;9.506;2022-12-18T01:17:34;99072.38;;;-8.08;81.47
7802;BME280;3945;48.952;9.506;2022-12-18T01:20:00;99069.59;;;-8.05;81.32
7802;BME280;3945;48.952;9.506;2022-12-18T01:22:27;99068.38;;;-7.99;81.15
7802;BME280;3945;48.952;9.506;2022-12-18T01:24:53;99072.00;;;-8.02;80.55
7802;BME280;3945;48.952;9.506;2022-12-18T01:27:19;99078.25;;;-8.06;80.57
7802;BME280;3945;48.952;9.506;2022-12-18T01:29:47;99078.66;;;-8.12;79.31
7802;BME280;3945;48.952;9.506;2022-12-18T01:32:14;99080.78;;;-8.18;79.65
7802;BME280;3945;48.952;9.506;2022-12-18T01:34:41;99087.59;;;-8.17;79.35
7802;BME280;3945;48.952;9.506;2022-12-18T01:37:07;99098.84;;;-8.18;79.29
7802;BME280;3945;48.952;9.506;2022-12-18T01:39:33;99099.50;;;-8.15;79.97
7802;BME280;3945;48.952;9.506;2022-12-18T01:42:00;99098.84;;;-8.18;79.02
7802;BME280;3945;48.952;9.506;2022-12-18T01:44:50;99085.19;;;-8.20;79.52
7802;BME280;3945;48.952;9.506;2022-12-18T01:47:21;99088.44;;;-8.17;79.60
7802;BME280;3945;48.952;9.506;2022-12-18T01:49:50;99100.69;;;-8.20;78.96
7802;BME280;3945;48.952;9.506;2022-12-18T01:52:16;99089.91;;;-8.27;78.72
7802;BME280;3945;48.952;9.506;2022-12-18T01:54:43;99084.16;;;-8.31;78.63
7802;BME280;3945;48.952;9.506;2022-12-18T01:57:09;99081.22;;;-8.39;77.21
7802;BME280;3945;48.952;9.506;2022-12-18T01:59:36;99076.22;;;-8.42;78.25
7802;BME280;3945;48.952;9.506;2022-12-18T02:02:03;99088.13;;;-8.39;78.64
7802;BME280;3945;48.952;9.506;2022-12-18T02:04:30;99088.28;;;-8.42;78.75
7802;BME280;3945;48.952;9.506;2022-12-18T02:06:58;99080.84;;;-8.47;78.32
7802;BME280;3945;48.952;9.506;2022-12-18T02:09:28;99079.19;;;-8.48;78.38
7802;BME280;3945;48.952;9.506;2022-12-18T02:12:16;99083.25;;;-8.44;80.82
7802;BME280;3945;48.952;9.506;2022-12-18T02:14:44;99095.50;;;-8.47;79.69
7802;BME280;3945;48.952;9.506;2022-12-18T02:17:13;99086.38;;;-8.53;79.32
7802;BME280;3945;48.952;9.506;2022-12-18T02:19:47;99081.50;;;-8.57;79.13
7802;BME280;3945;48.952;9.506;2022-12-18T02:22:23;99083.97;;;-8.56;78.65
7802;BME280;3945;48.952;9.506;2022-12-18T02:24:54;99092.47;;;-8.54;79.17
7802;BME280;3945;48.952;9.506;2022-12-18T02:27:26;99091.72;;;-8.56;79.69
7802;BME280;3945;48.952;9.506;2022-12-18T02:29:53;99098.63;;;-8.56;79.10
7802;BME280;3945;48.952;9.506;2022-12-18T02:32:22;99103.69;;;-8.55;79.29
7802;BME280;3945;48.952;9.506;2022-12-18T02:34:50;99100.13;;;-8.52;79.04
7802;BME280;3945;48.952;9.506;2022-12-18T02:37:17;99096.63;;;-8.51;80.00
7802;BME280;3945;48.952;9.506;2022-12-18T02:39:45;99094.66;;;-8.48;79.73
7802;BME280;3945;48.952;9.506;2022-12-18T02:42:13;99082.50;;;-8.46;79.90
7802;BME280;3945;48.952;9.506;2022-12-18T02:44:45;99089.25;;;-8.43;79.79
7802;BME280;3945;48.952;9.506;2022-12-18T02:47:12;99101.31;;;-8.44;79.56
7802;BME280;3945;48.952;9.506;2022-12-18T02:49:41;99101.19;;;-8.42;79.75
7802;BME280;3945;48.952;9.506;2022-12-18T02:52:11;99104.72;;;-8.43;79.65
7802;BME280;3945;48.952;9.506;2022-12-18T02:54:47;99111.53;;;-8.42;79.56
7802;BME280;3945;48.952;9.506;2022-12-18T02:57:18;99114.09;;;-8.42;80.12
7802;BME280;3945;48.952;9.506;2022-12-18T02:59:52;99112.25;;;-8.40;82.34
7802;BME280;3945;48.952;9.506;2022-12-18T03:02:23;99123.03;;;-8.34;82.58
7802;BME280;3945;48.952;9.506;2022-12-18T03:04:53;99124.38;;;-8.28;84.03
7802;BME280;3945;48.952;9.506;2022-12-18T03:07:28;99114.41;;;-8.20;84.77
7802;BME280;3945;48.952;9.506;2022-12-18T03:10:00;99107.78;;;-8.10;85.34
7802;BME280;3945;48.952;9.506;2022-12-18T03:12:28;99112.47;;;-8.02;85.44
7802;BME280;3945;48.952;9.506;2022-12-18T03:14:59;99106.91;;;-7.96;86.33
7802;BME280;3945;48.952;9.506;2022-12-18T03:17:27;99111.53;;;-7.87;86.99
7802;BME280;3945;48.952;9.506;2022-12-18T03:19:54;99111.97;;;-7.80;86.27
7802;BME280;3945;48.952;9.506;2022-12-18T03:22:23;99116.00;;;-7.76;87.11
7802;BME280;3945;48.952;9.506;2022-12-18T03:24:50;99112.22;;;-7.71;87.22
7802;BME280;3945;48.952;9.506;2022-12-18T03:27:18;99108.31;;;-7.64;86.85
7802;BME280;3945;48.952;9.506;2022-12-18T03:29:47;99116.50;;;-7.57;86.92
7802;BME280;3945;48.952;9.506;2022-12-18T03:32:18;99114.88;;;-7.45;87.31
7802;BME280;3945;48.952;9.506;2022-12-18T03:34:47;99112.53;;;-7.36;87.24
7802;BME280;3945;48.952;9.506;2022-12-18T03:37:16;99123.50;;;-7.32;87.54
7802;BME280;3945;48.952;9.506;2022-12-18T03:39:42;99122.25;;;-7.27;87.35
7802;BME280;3945;48.952;9.506;2022-12-18T03:42:10;99113.91;;;-7.18;87.60
7802;BME280;3945;48.952;9.506;2022-12-18T03:44:41;99126.84;;;-7.18;86.46
7802;BME280;3945;48.952;9.506;2022-12-18T03:47:12;99126.66;;;-7.15;86.64
7802;BME280;3945;48.952;9.506;2022-12-18T03:49:43;99124.06;;;-7.15;86.04
7802;BME280;3945;48.952;9.506;2022-12-18T03:52:12;99123.03;;;-7.12;86.25
7802;BME280;3945;48.952;9.506;2022-12-18T03:54:41;99118.91;;;-7.15;86.28
7802;BME280;3945;48.952;9.506;2022-12-18T03:57:09;99114.13;;;-7.21;84.91
7802;BME280;3945;48.952;9.506;2022-12-18T03:59:38;99115.25;;;-7.25;84.77
7802;BME280;3945;48.952;9.506;2022-12-18T04:02:05;99118.06;;;-7.28;84.20
7802;BME280;3945;48.952;9.506;2022-12-18T04:04:33;99114.72;;;-7.30;83.50
7802;BME280;3945;48.952;9.506;2022-12-18T04:07:02;99115.00;;;-7.34;83.22
7802;BME280;3945;48.952;9.506;2022-12-18T04:09:29;99116.22;;;-7.40;82.50
7802;BME280;3945;48.952;9.506;2022-12-18T04:11:56;99112.59;;;-7.50;82.65
7802;BME280;3945;48.952;9.506;2022-12-18T04:14:22;99106.25;;;-7.59;81.82
7802;BME280;3945;48.952;9.506;2022-12-18T04:16:49;99112.25;;;-7.58;83.12
7802;BME280;3945;48.952;9.506;2022-12-18T04:19:15;99115.38;;;-7.53;83.54
7802;BME280;3945;48.952;9.506;2022-12-18T04:21:41;99119.63;;;-7.52;83.50
7802;BME280;3945;48.952;9.506;2022-12-18T04:24:09;99124.03;;;-7.54;84.05
7802;BME280;3945;48.952;9.506;2022-12-18T04:26:35;99127.56;;;-7.55;82.94
7802;BME280;3945;48.952;9.506;2022-12-18T04:29:03;99126.94;;;-7.59;82.51
7802;BME280;3945;48.952;9.506;2022-12-18T04:31:29;99127.94;;;-7.61;83.59
7802;BME280;3945;48.952;9.506;2022-12-18T04:33:56;99142.63;;;-7.62;82.81
7802;BME280;3945;48.952;9.506;2022-12-18T04:36:22;99134.88;;;-7.62;83.03
7802;BME280;3945;48.952;9.506;2022-12-18T04:38:48;99125.66;;;-7.66;82.33
7802;BME280;3945;48.952;9.506;2022-12-18T04:41:16;99127.50;;;-7.68;82.50
7802;BME280;3945;48.952;9.506;2022-12-18T04:43:43;99131.22;;;-7.72;82.29
7802;BME280;3945;48.952;9.506;2022-12-18T04:46:09;99143.09;;;-7.69;82.77
7802;BME280;3945;48.952;9.506;2022-12-18T04:48:35;99146.41;;;-7.67;83.54
7802;BME280;3945;48.952;9.506;2022-12-18T04:51:02;99142.91;;;-7.66;83.00
7802;BME280;3945;48.952;9.506;2022-12-18T04:53:29;99133.19;;;-7.63;83.75
7802;BME280;3945;48.952;9.506;2022-12-18T04:56:05;99133.56;;;-7.55;84.65
7802;BME280;3945;48.952;9.506;2022-12-18T04:58:33;99146.19;;;-7.50;84.36
7802;BME280;3945;48.952;9.506;2022-12-18T05:01:00;99145.06;;;-7.46;83.87
7802;BME280;3945;48.952;9.506;2022-12-18T05:03:26;99148.47;;;-7.45;83.21
7802;BME280;3945;48.952;9.506;2022-12-18T05:05:52;99150.03;;;-7.43;84.23
7802;BME280;3945;48.952;9.506;2022-12-18T05:08:19;99149.31;;;-7.45;83.14
7802;BME280;3945;48.952;9.506;2022-12-18T05:10:45;99149.63;;;-7.50;83.17
7802;BME280;3945;48.952;9.506;2022-12-18T05:13:12;99143.63;;;-7.50;83.02
7802;BME280;3945;48.952;9.506;2022-12-18T05:15:39;99137.69;;;-7.52;83.51
7802;BME280;3945;48.952;9.506;2022-12-18T05:18:06;99140.47;;;-7.55;83.29
7802;BME280;3945;48.952;9.506;2022-12-18T05:20:33;99145.75;;;-7.57;82.73
7802;BME280;3945;48.952;9.506;2022-12-18T05:22:59;99143.25;;;-7.58;82.49
7802;BME280;3945;48.952;9.506;2022-12-18T05:25:26;99139.19;;;-7.62;82.49
7802;BME280;3945;48.952;9.506;2022-12-18T05:27:52;99139.19;;;-7.62;82.18
7802;BME280;3945;48.952;9.506;2022-12-18T05:30:19;99147.25;;;-7.67;82.21
7802;BME280;3945;48.952;9.506;2022-12-18T05:32:46;99142.81;;;-7.65;82.36
7802;BME280;3945;48.952;9.506;2022-12-18T05:35:13;99144.75;;;-7.68;82.14
7802;BME280;3945;48.952;9.506;2022-12-18T05:37:39;99142.47;;;-7.73;82.01
7802;BME280;3945;48.952;9.506;2022-12-18T05:40:06;99129.03;;;-7.78;81.86
7802;BME280;3945;48.952;9.506;2022-12-18T05:42:33;99136.22;;;-7.83;81.58
7802;BME280;3945;48.952;9.506;2022-12-18T05:44:59;99133.28;;;-7.91;81.77
7802;BME280;3945;48.952;9.506;2022-12-18T05:47:26;99142.44;;;-8.00;81.51
7802;BME280;3945;48.952;9.506;2022-12-18T05:49:54;99145.59;;;-8.09;81.11
7802;BME280;3945;48.952;9.506;2022-12-18T05:52:20;99150.75;;;-8.09;81.96
7802;BME280;3945;48.952;9.506;2022-12-18T05:54:47;99139.75;;;-8.12;81.66
7802;BME280;3945;48.952;9.506;2022-12-18T05:57:13;99152.75;;;-8.14;82.52
7802;BME280;3945;48.952;9.506;2022-12-18T05:59:39;99151.75;;;-8.11;82.56
7802;BME280;3945;48.952;9.506;2022-12-18T06:02:06;99160.25;;;-8.09;83.25
7802;BME280;3945;48.952;9.506;2022-12-18T06:04:32;99165.19;;;-8.06;83.22
7802;BME280;3945;48.952;9.506;2022-12-18T06:07:00;99164.84;;;-8.00;83.13
7802;BME280;3945;48.952;9.506;2022-12-18T06:09:26;99164.66;;;-7.97;82.30
7802;BME280;3945;48.952;9.506;2022-12-18T06:11:52;99169.06;;;-7.99;81.99
7802;BME280;3945;48.952;9.506;2022-12-18T06:14:19;99170.72;;;-7.98;82.36
7802;BME280;3945;48.952;9.506;2022-12-18T06:16:45;99161.44;;;-8.01;81.42
7802;BME280;3945;48.952;9.506;2022-12-18T06:19:13;99161.81;;;-8.07;81.19
7802;BME280;3945;48.952;9.506;2022-12-18T06:21:40;99156.09;;;-8.12;81.49
7802;BME280;3945;48.952;9.506;2022-12-18T06:24:08;99161.53;;;-8.16;80.63
7802;BME280;3945;48.952;9.506;2022-12-18T06:26:36;99167.91;;;-8.22;81.27
7802;BME280;3945;48.952;9.506;2022-12-18T06:29:03;99170.50;;;-8.22;81.37
7802;BME280;3945;48.952;9.506;2022-12-18T06:31:29;99163.09;;;-8.28;81.50
7802;BME280;3945;48.952;9.506;2022-12-18T06:33:55;99168.91;;;-8.24;81.31
7802;BME280;3945;48.952;9.506;2022-12-18T06:36:22;99170.66;;;-8.25;81.79
7802;BME280;3945;48.952;9.506;2022-12-18T06:38:48;99176.47;;;-8.21;82.35
7802;BME280;3945;48.952;9.506;2022-12-18T06:41:16;99169.44;;;-8.19;82.47
7802;BME280;3945;48.952;9.506;2022-12-18T06:43:44;99168.00;;;-8.23;81.75
7802;BME280;3945;48.952;9.506;2022-12-18T06:46:10;99169.81;;;-8.25;82.36
7802;BME280;3945;48.952;9.506;2022-12-18T06:48:37;99178.41;;;-8.25;82.16
7802;BME280;3945;48.952;9.506;2022-12-18T06:51:04;99180.16;;;-8.25;82.76
7802;BME280;3945;48.952;9.506;2022-12-18T06:53:31;99168.00;;;-8.23;82.90
7802;BME280;3945;48.952;9.506;2022-12-18T06:55:59;99179.31;;;-8.26;82.34
7802;BME280;3945;48.952;9.506;2022-12-18T06:58:28;99176.09;;;-8.30;83.03
7802;BME280;3945;48.952;9.506;2022-12-18T07:00:58;99176.00;;;-8.28;82.68
7802;BME280;3945;48.952;9.506;2022-12-18T07:03:25;99186.31;;;-8.28;82.65
7802;BME280;3945;48.952;9.506;2022-12-18T07:05:51;99181.38;;;-8.31;83.22
7802;BME280;3945;48.952;9.506;2022-12-18T07:08:17;99189.72;;;-8.28;83.18
7802;BME280;3945;48.952;9.506;2022-12-18T07:10:44;99192.13;;;-8.24;82.98
7802;BME280;3945;48.952;9.506;2022-12-18T07:13:10;99194.44;;;-8.20;83.32
7802;BME280;3945;48.952;9.506;2022-12-18T07:15:38;99198.59;;;-8.17;83.21
7802;BME280;3945;48.952;9.506;2022-12-18T07:18:04;99201.81;;;-8.14;83.13
7802;BME280;3945;48.952;9.506;2022-12-18T07:20:30;99199.88;;;-8.10;82.63
7802;BME280;3945;48.952;9.506;2022-12-18T07:22:57;99203.94;;;-8.06;82.32
7802;BME280;3945;48.952;9.506;2022-12-18T07:25:23;99204.88;;;-8.07;82.04
7802;BME280;3945;48.952;9.506;2022-12-18T07:27:49;99203.22;;;-8.08;82.38
7802;BME280;3945;48.952;9.506;2022-12-18T07:30:16;99209.53;;;-8.14;81.36
7802;BME280;3945;48.952;9.506;2022-12-18T07:32:43;99207.16;;;-8.17;80.95
7802;BME280;3945;48.952;9.506;2022-12-18T07:35:10;99217.56;;;-8.18;81.22
7802;BME280;3945;48.952;9.506;2022-12-18T07:37:36;99218.31;;;-8.16;82.30
7802;BME280;3945;48.952;9.506;2022-12-18T07:40:03;99218.97;;;-8.13;82.31
7802;BME280;3945;48.952;9.506;2022-12-18T07:42:29;99218.63;;;-8.07;82.83
7802;BME280;3945;48.952;9.506;2022-12-18T07:44:59;99225.16;;;-8.01;83.43
7802;BME280;3945;48.952;9.506;2022-12-18T07:47:26;99223.94;;;-7.96;83.32
7802;BME280;3945;48.952;9.506;2022-12-18T07:49:54;99220.25;;;-7.92;82.48
7802;BME280;3945;48.952;9.506;2022-12-18T07:52:20;99218.22;;;-7.86;82.13
7802;BME280;3945;48.952;9.506;2022-12-18T07:54:46;99227.34;;;-7.81;82.10
7802;BME280;3945;48.952;9.506;2022-12-18T07:57:14;99223.75;;;-7.78;82.75
7802;BME280;3945;48.952;9.506;2022-12-18T07:59:40;99225.31;;;-7.76;82.28
7802;BME280;3945;48.952;9.506;2022-12-18T08:02:06;99232.88;;;-7.73;82.61
7802;BME280;3945;48.952;9.506;2022-12-18T08:04:33;99231.13;;;-7.72;82.64
7802;BME280;3945;48.952;9.506;2022-12-18T08:07:00;99231.84;;;-7.70;82.78
7802;BME280;3945;48.952;9.506;2022-12-18T08:09:27;99225.50;;;-7.65;82.08
7802;BME280;3945;48.952;9.506;2022-12-18T08:11:53;99238.50;;;-7.66;82.13
7802;BME280;3945;48.952;9.506;2022-12-18T08:14:19;99238.50;;;-7.66;82.38
7802;BME280;3945;48.952;9.506;2022-12-18T08:16:46;99235.53;;;-7.60;82.63
7802;BME280;3945;48.952;9.506;2022-12-18T08:19:12;99225.56;;;-7.52;82.95
7802;BME280;3945;48.952;9.506;2022-12-18T08:21:41;99226.66;;;-7.42;83.99
7802;BME280;3945;48.952;9.506;2022-12-18T08:24:09;99214.53;;;-7.41;84.18
7802;BME280;3945;48.952;9.506;2022-12-18T08:26:36;99221.94;;;-7.35;83.86
7802;BME280;3945;48.952;9.506;2022-12-18T08:29:02;99221.63;;;-7.31;84.02
7802;BME280;3945;48.952;9.506;2022-12-18T08:31:29;99222.59;;;-7.19;83.10
7802;BME280;3945;48.952;9.506;2022-12-18T08:33:55;99222.09;;;-7.12;83.41
7802;BME280;3945;48.952;9.506;2022-12-18T08:36:22;99222.53;;;-7.05;84.05
7802;BME280;3945;48.952;9.506;2022-12-18T08:38:49;99223.63;;;-6.95;83.58
7802;BME280;3945;48.952;9.506;2022-12-18T08:41:17;99232.56;;;-6.86;83.49
7802;BME280;3945;48.952;9.506;2022-12-18T08:43:44;99220.78;;;-6.78;82.84
7802;BME280;3945;48.952;9.506;2022-12-18T08:46:31;99222.03;;;-6.71;82.81
7802;BME280;3945;48.952;9.506;2022-12-18T08:48:58;99214.72;;;-6.64;82.79
7802;BME280;3945;48.952;9.506;2022-12-18T08:51:25;99223.50;;;-6.54;83.28
7802;BME280;3945;48.952;9.506;2022-12-18T08:53:51;99219.47;;;-6.45;83.11
7802;BME280;3945;48.952;9.506;2022-12-18T08:56:19;99212.88;;;-6.37;82.51
7802;BME280;3945;48.952;9.506;2022-12-18T08:58:46;99219.28;;;-6.29;82.52
7802;BME280;3945;48.952;9.506;2022-12-18T09:01:12;99223.63;;;-6.17;82.71
7802;BME280;3945;48.952;9.506;2022-12-18T09:03:39;99222.28;;;-6.10;82.76
7802;BME280;3945;48.952;9.506;2022-12-18T09:06:05;99225.28;;;-6.04;82.14
7802;BME280;3945;48.952;9.506;2022-12-18T09:08:32;99220.63;;;-5.99;82.40
7802;BME280;3945;48.952;9.506;2022-12-18T09:10:58;99219.16;;;-5.90;82.15
7802;BME280;3945;48.952;9.506;2022-12-18T09:13:26;99213.94;;;-5.77;82.28
7802;BME280;3945;48.952;9.506;2022-12-18T09:15:53;99205.41;;;-5.67;81.69
7802;BME280;3945;48.952;9.506;2022-12-18T09:18:20;99204.88;;;-5.59;82.07
7802;BME280;3945;48.952;9.506;2022-12-18T09:20:47;99197.06;;;-5.46;81.77
7802;BME280;3945;48.952;9.506;2022-12-18T09:23:15;99206.34;;;-5.31;81.65
7802;BME280;3945;48.952;9.506;2022-12-18T09:25:41;99203.59;;;-5.17;81.51
7802;BME280;3945;48.952;9.506;2022-12-18T09:28:09;99196.56;;;-5.04;81.23
7802;BME280;3945;48.952;9.506;2022-12-18T09:30:38;99186.00;;;-4.90;80.83
7802;BME280;3945;48.952;9.506;2022-12-18T09:33:04;99189.16;;;-4.74;80.39
7802;BME280;3945;48.952;9.506;2022-12-18T09:35:31;99194.38;;;-4.62;80.00
7802;BME280;3945;48.952;9.506;2022-12-18T09:37:57;99189.09;;;-4.50;79.37
7802;BME280;3945;48.952;9.506;2022-12-18T09:40:24;99182.88;;;-4.36;79.26
7802;BME280;3945;48.952;9.506;2022-12-18T09:42:52;99187.63;;;-4.19;79.04
7802;BME280;3945;48.952;9.506;2022-12-18T09:45:20;99180.44;;;-4.04;78.58
7802;BME280;3945;48.952;9.506;2022-12-18T09:47:48;99178.06;;;-3.85;78.51
7802;BME280;3945;48.952;9.506;2022-12-18T09:50:22;99177.69;;;-3.69;77.72
7802;BME280;3945;48.952;9.506;2022-12-18T09:52:50;99177.31;;;-3.53;77.77
7802;BME280;3945;48.952;9.506;2022-12-18T09:55:20;99175.28;;;-3.39;77.03
7802;BME280;3945;48.952;9.506;2022-12-18T09:57:49;99180.25;;;-3.04;76.94
7802;BME280;3945;48.952;9.506;2022-12-18T10:00:17;99177.69;;;-2.83;76.54
7802;BME280;3945;48.952;9.506;2022-12-18T10:02:45;99173.63;;;-2.55;75.01
7802;BME280;3945;48.952;9.506;2022-12-18T10:05:14;99166.75;;;-2.36;74.15
7802;BME280;3945;48.952;9.506;2022-12-18T10:07:44;99165.53;;;-2.11;nan
7802;BME280;3945;48.952;9.506;2022-12-18T10:10:14;99158.38;;;-1.78;72.85
7802;BME280;3945;48.952;9.506;2022-12-18T10:12:46;99148.69;;;-1.57;72.28
7802;BME280;3945;48.952;9.506;2022-12-18T10:15:19;99149.56;;;-1.37;71.55
7802;BME280;3945;48.952;9.506;2022-12-18T10:17:51;99146.69;;;-1.15;70.96
7802;BME280;3945;48.952;9.506;2022-12-18T10:20:20;99152.63;;;-0.94;70.08
7802;BME280;3945;48.952;9.506;2022-12-18T10:22:52;99165.81;;;-0.76;69.65
7802;BME280;3945;48.952;9.506;2022-12-18T10:25:22;99158.63;;;-0.45;69.60
7802;BME280;3945;48.952;9.506;2022-12-18T10:27:51;99156.78;;;-0.16;69.38
7802;BME280;3945;48.952;9.506;2022-12-18T10:30:19;99156.56;;;0.05;68.44
7802;BME280;3945;48.952;9.506;2022-12-18T10:32:46;99150.25;;;0.35;68.19
7802;BME280;3945;48.952;9.506;2022-12-18T10:35:15;99159.91;;;0.52;66.33
7802;BME280;3945;48.952;9.506;2022-12-18T10:40:25;99154.03;;;0.68;65.42
7802;BME280;3945;48.952;9.506;2022-12-18T10:43:03;99155.53;;;0.70;65.46
7802;BME280;3945;48.952;9.506;2022-12-18T10:45:29;99152.63;;;0.73;65.67
7802;BME280;3945;48.952;9.506;2022-12-18T10:47:56;99167.81;;;0.88;65.23
7802;BME280;3945;48.952;9.506;2022-12-18T10:50:24;99170.00;;;0.92;64.64
7802;BME280;3945;48.952;9.506;2022-12-18T10:52:53;99177.03;;;1.09;65.57
7802;BME280;3945;48.952;9.506;2022-12-18T10:55:20;99166.09;;;1.49;65.44
7802;BME280;3945;48.952;9.506;2022-12-18T10:57:48;99171.19;;;1.77;62.80
7802;BME280;3945;48.952;9.506;2022-12-18T11:00:22;99171.75;;;1.88;63.27
7802;BME280;3945;48.952;9.506;2022-12-18T11:02:49;99170.25;;;2.12;63.04
7802;BME280;3945;48.952;9.506;2022-12-18T11:05:23;99163.94;;;1.96;60.91
7802;BME280;3945;48.952;9.506;2022-12-18T11:07:50;99168.47;;;2.12;61.64
7802;BME280;3945;48.952;9.506;2022-12-18T11:10:19;99165.09;;;2.28;61.79
7802;BME280;3945;48.952;9.506;2022-12-18T11:12:47;99156.28;;;2.37;61.70
7802;BME280;3945;48.952;9.506;2022-12-18T11:15:15;99142.38;;;2.61;61.00
7802;BME280;3945;48.952;9.506;2022-12-18T11:17:42;99153.44;;;2.72;61.44
7802;BME280;3945;48.952;9.506;2022-12-18T11:20:19;99148.22;;;2.81;59.78
7802;BME280;3945;48.952;9.506;2022-12-18T11:22:53;99139.50;;;2.80;59.63
7802;BME280;3945;48.952;9.506;2022-12-18T11:25:21;99135.03;;;2.64;59.89
7802;BME280;3945;48.952;9.506;2022-12-18T11:27:49;99135.16;;;2.55;60.52
7802;BME280;3945;48.952;9.506;2022-12-18T11:30:21;99133.88;;;2.59;59.97
7802;BME280;3945;48.952;9.506;2022-12-18T11:32:48;99123.06;;;2.86;60.37
7802;BME280;3945;48.952;9.506;2022-12-18T11:35:17;99120.63;;;3.09;59.02
7802;BME280;3945;48.952;9.506;2022-12-18T11:37:46;99123.75;;;3.21;59.00
7802;BME280;3945;48.952;9.506;2022-12-18T11:40:14;99123.25;;;3.17;57.45
7802;BME280;3945;48.952;9.506;2022-12-18T11:42:45;99123.91;;;3.11;58.16
7802;BME280;3945;48.952;9.506;2022-12-18T11:45:23;99120.00;;;3.23;57.12
7802;BME280;3945;48.952;9.506;2022-12-18T11:47:52;99117.31;;;3.47;58.57
7802;BME280;3945;48.952;9.506;2022-12-18T11:50:23;99110.72;;;3.68;57.32
7802;BME280;3945;48.952;9.506;2022-12-18T11:52:50;99099.69;;;3.72;56.88
7802;BME280;3945;48.952;9.506;2022-12-18T11:55:19;99102.19;;;3.66;56.65
7802;BME280;3945;48.952;9.506;2022-12-18T11:57:51;99101.19;;;3.67;56.94
7802;BME280;3945;48.952;9.506;2022-12-18T12:00:19;99096.44;;;3.54;56.57
7802;BME280;3945;48.952;9.506;2022-12-18T12:03:01;99093.34;;;3.42;57.75
7802;BME280;3945;48.952;9.506;2022-12-18T12:05:36;99093.47;;;3.57;58.12
7802;BME280;3945;48.952;9.506;2022-12-18T12:08:08;99084.91;;;3.71;57.78
7802;BME280;3945;48.952;9.506;2022-12-18T12:10:40;99087.81;;;3.84;57.46
7802;BME280;3945;48.952;9.506;2022-12-18T12:13:15;99084.69;;;3.89;56.75
7802;BME280;3945;48.952;9.506;2022-12-18T12:15:47;99082.84;;;3.98;56.99
7802;BME280;3945;48.952;9.506;2022-12-18T12:18:20;99079.31;;;3.66;56.46
7802;BME280;3945;48.952;9.506;2022-12-18T12:20:53;99072.88;;;3.77;57.54
7802;BME280;3945;48.952;9.506;2022-12-18T12:23:25;99075.97;;;3.88;57.32
7802;BME280;3945;48.952;9.506;2022-12-18T12:25:55;99058.97;;;3.99;57.01
7802;BME280;3945;48.952;9.506;2022-12-18T12:28:28;99068.19;;;4.03;56.72
7802;BME280;3945;48.952;9.506;2022-12-18T12:31:01;99075.16;;;3.88;55.97
7802;BME280;3945;48.952;9.506;2022-12-18T12:33:35;99077.38;;;3.44;57.53
7802;BME280;3945;48.952;9.506;2022-12-18T12:36:06;99071.78;;;3.39;58.58
7802;BME280;3945;48.952;9.506;2022-12-18T12:38:36;99071.16;;;3.37;58.52
7802;BME280;3945;48.952;9.506;2022-12-18T12:41:09;99071.66;;;3.24;57.57
7802;BME280;3945;48.952;9.506;2022-12-18T12:43:58;99068.69;;;3.19;59.01
7802;BME280;3945;48.952;9.506;2022-12-18T12:46:25;99077.25;;;3.29;59.69
7802;BME280;3945;48.952;9.506;2022-12-18T12:48:54;99079.22;;;3.35;59.28
7802;BME280;3945;48.952;9.506;2022-12-18T12:51:22;99071.78;;;3.39;59.17
7802;BME280;3945;48.952;9.506;2022-12-18T12:53:49;99066.88;;;3.44;59.06
7802;BME280;3945;48.952;9.506;2022-12-18T12:56:17;99065.22;;;3.43;59.21
7802;BME280;3945;48.952;9.506;2022-12-18T12:58:50;99079.03;;;3.37;58.93
7802;BME280;3945;48.952;9.506;2022-12-18T13:01:24;99082.16;;;3.32;60.24
7802;BME280;3945;48.952;9.506;2022-12-18T13:03:55;99073.78;;;3.37;60.36
7802;BME280;3945;48.952;9.506;2022-12-18T13:06:28;99069.50;;;3.28;59.64
7802;BME280;3945;48.952;9.506;2022-12-18T13:09:00;99068.88;;;3.09;59.82
7802;BME280;3945;48.952;9.506;2022-12-18T13:11:29;99074.13;;;2.93;60.82
7802;BME280;3945;48.952;9.506;2022-12-18T13:14:19;99074.13;;;2.85;60.36
7802;BME280;3945;48.952;9.506;2022-12-18T13:16:46;99082.31;;;2.74;61.51
7802;BME280;3945;48.952;9.506;2022-12-18T13:19:18;99074.59;;;2.64;61.32
7802;BME280;3945;48.952;9.506;2022-12-18T13:21:51;99087.72;;;2.56;62.15
7802;BME280;3945;48.952;9.506;2022-12-18T13:24:22;99084.22;;;2.48;62.34
7802;BME280;3945;48.952;9.506;2022-12-18T13:26:49;99084.06;;;2.41;62.46
7802;BME280;3945;48.952;9.506;2022-12-18T13:29:22;99078.47;;;2.36;62.85
7802;BME280;3945;48.952;9.506;2022-12-18T13:32:15;99080.91;;;2.29;62.38
7802;BME280;3945;48.952;9.506;2022-12-18T13:34:46;99080.84;;;2.13;62.92